• Join FlightAware (Why Join?)
  • Login
  • US Flag 
03:51PM EDT


 

Airport Tracker/Info


-or-


 

Live Flight TrackerFlight Track Log ✈ EGF3994 ✈ 16-Apr-2013 ✈ KORD - KDAY

Flight Track Log - Related Links

Times and Time Zones

All times are in EDT time to prevent confusion due to time zone crossing. See the EGF3994 flight status page for this flight to view local times or setup timezone preferences in your user account.

Time Position Orientation Groundspeed Altitude Reporting Facility
EDT Latitude Longitude Course Direction KTS MPH feet Rate Location/Type
09:20PM 42.0167 -87.8333 90° East 190 219 2,900  Level Chicago TRACON
09:22PM 41.9603 -87.4698 98° East  Level FlightAware Approximate
09:22PM 42.0069 -87.6911 95° East 239 275 6,300  Level Chicago Center
09:23PM 41.9472 -87.3273 95° East  Level FlightAware Approximate
09:23PM 41.9961 -87.5839 98° East 279 321 8,400  Level Chicago Center
09:24PM 41.9370 -87.1845 95° East  Level FlightAware Approximate
09:24PM 41.9850 -87.4711 98° East 297 342 10,300  Level Chicago Center
09:25PM 41.9333 -87.0412 90° East  Level FlightAware Approximate
09:25PM 41.9728 -87.3433 97° East 330 380 11,500  Level Chicago Center
09:26PM 41.9581 -87.2033 98° East 366 421 12,600 1,080 Climbing Chicago Center
09:27PM 41.9433 -87.0539 97° East 393 452 13,800 1,440 Climbing Chicago Center
09:28PM 41.9408 -86.8714 91° East 406 467 15,600 1,560 Climbing Chicago Center
09:29PM 41.9500 -86.7175 85° East 413 475 17,100 1,320 Climbing Chicago Center
09:30PM 41.9506 -86.5556 90° East 415 478 18,400 1,320 Climbing Chicago Center
09:31PM 41.9164 -86.4169 108° East 400 460 19,900 1,380 Climbing Chicago Center
09:32PM 41.8386 -86.3069 133° Southeast 406 467 21,300 1,380 Climbing Chicago Center
09:33PM 41.7636 -86.1942 132° Southeast 407 468 22,800 780 Climbing Chicago Center
09:34PM 41.6858 -86.0767 132° Southeast 417 480 23,000 60 Climbing Chicago Center
09:35PM 41.6003 -85.9508 132° Southeast 447 514 23,000  Level Chicago Center
09:36PM 41.5133 -85.8208 132° Southeast 467 537 23,000  Level Chicago Center
09:37PM 41.4100 -85.6664 132° Southeast 470 541 23,000  Level Chicago Center
09:38PM 41.3267 -85.5406 131° Southeast 463 533 23,000 -240 Level Chicago Center
09:39PM 41.2422 -85.4153 132° Southeast 461 531 22,600 -900 Descending Chicago Center
09:40PM 41.1558 -85.2881 132° Southeast 463 533 21,200 -1,440 Descending Chicago Center
09:41PM 41.0725 -85.1647 132° Southeast 459 528 19,700 -1,440 Descending Chicago Center
09:42PM 40.9942 -85.0492 132° Southeast 440 506 18,300 -1,440 Descending Chicago Center
09:43PM 40.8964 -84.9100 133° Southeast 433 498 16,800 -1,500 Descending Chicago Center
09:44PM 40.8153 -84.7925 132° Southeast 433 498 15,300 -900 Descending Chicago Center
09:45PM 40.7372 -84.6789 132° Southeast 428 493 15,000 -840 Descending Chicago Center
09:46PM 40.6581 -84.5694 134° Southeast 420 483 13,600 -1,680 Descending Chicago Center
09:47PM 40.5531 -84.5408 168° South 395 455 11,600 -1,800 Descending Chicago Center
09:48PM 40.4900 -84.5269 170° South 354 407 10,900 -1,080 Descending Indianapolis Center
09:49PM 40.4372 -84.5147 170° South 369 425 10,300 -600 Descending Indianapolis Center
09:50PM 40.3408 -84.5050 176° South 346 398 9,900 -540 Descending Indianapolis Center
09:50PM 40.3033 -84.5039 179° South 292 336 9,600 -1,620 Descending Indianapolis Center
09:51PM 40.2469 -84.5017 178° South 297 342 8,300 -1,680 Descending Indianapolis Center
09:51PM 40.2239 -84.5011 179° South 276 318 7,900 -1,800 Descending Indianapolis Center
09:52PM 40.1689 -84.4961 176° South 286 329 6,500 -1,860 Descending Indianapolis Center
09:52PM 40.1364 -84.4947 178° South 273 314 5,900 -1,500 Descending Indianapolis Center
09:53PM 40.0950 -84.4917 177° South 277 319 5,000 -1,500 Descending Indianapolis Center
09:53PM 40.0653 -84.4903 178° South 252 290 4,400 -1,140 Descending Indianapolis Center
09:54PM 40.0236 -84.4911 181° South 265 305 3,900 -420 Descending Indianapolis Center
09:54PM 39.9939 -84.4942 185° South 260 299 4,000  Climbing Indianapolis Center
09:55PM 39.9506 -84.4933 179° South 260 299 3,900  Descending Indianapolis Center
09:55PM 39.9203 -84.4950 182° South 268 308 4,000 -540 Climbing Indianapolis Center
09:56PM 39.8764 -84.4947 180° South 264 304 3,400 -1,020 Descending Indianapolis Center
09:56PM 39.8433 -84.4897 173° South 259 298 3,000 -540 Descending Indianapolis Center
09:57PM 39.8128 -84.4672 151° Southeast 250 288 2,900 -180 Descending Indianapolis Center